Time;durP1;ratioP1;P1;durP2;ratioP2;P2;SDS_P1;SDS_P2;PMS_P1;PMS_P2;Temp;Humidity;BMP_temperature;BMP_pressure;BME280_temperature;BME280_humidity;BME280_pressure;Samples;Min_cycle;Max_cycle;Signal;HPM_P1;HPM_P2
2023/09/19 00:00:46;;;;;;;19.40;17.33;;;19.40;99.90;18.80;99451;;;;590578;239;23037;-79
2023/09/19 00:03:14;;;;;;;18.00;16.13;;;19.40;99.90;18.80;99456;;;;590625;239;23044;-79
2023/09/19 00:05:45;;;;;;;21.20;16.37;;;19.40;99.90;18.80;99459;;;;590739;239;25066;-80
2023/09/19 00:08:09;;;;;;;25.47;17.97;;;19.40;99.90;18.80;99466;;;;590649;239;24084;-79
2023/09/19 00:10:39;;;;;;;19.97;17.03;;;19.40;99.90;18.80;99467;;;;590702;239;24101;-80
2023/09/19 00:13:06;;;;;;;19.50;17.50;;;19.40;99.90;18.80;99464;;;;591017;237;24042;-80
2023/09/19 00:15:49;;;;;;;20.83;15.90;;;19.40;99.90;18.80;99467;;;;592176;239;23071;-78
2023/09/19 00:18:15;;;;;;;19.03;15.80;;;19.40;99.90;18.80;99470;;;;591277;239;24096;-79
2023/09/19 00:20:42;;;;;;;22.10;17.70;;;19.30;99.90;18.80;99463;;;;591469;239;23123;-80
2023/09/19 00:23:10;;;;;;;20.43;17.10;;;19.40;99.90;18.80;99462;;;;590939;239;24044;-79
2023/09/19 00:25:40;;;;;;;21.40;17.67;;;19.40;99.90;18.80;99462;;;;591022;239;24110;-78
2023/09/19 00:28:07;;;;;;;19.50;16.57;;;19.30;99.90;18.80;99460;;;;591265;239;24089;-79
2023/09/19 00:30:38;;;;;;;23.80;17.20;;;19.40;99.90;18.80;99459;;;;591193;239;23054;-78
2023/09/19 00:33:05;;;;;;;25.97;17.33;;;19.40;99.90;18.80;99464;;;;590581;239;23043;-78
2023/09/19 00:35:30;;;;;;;21.13;16.80;;;19.40;99.90;18.80;99463;;;;590804;239;24033;-76
2023/09/19 00:37:58;;;;;;;20.27;17.63;;;19.40;99.90;18.80;99463;;;;591014;239;24010;-78
2023/09/19 00:40:26;;;;;;;18.03;16.17;;;19.40;99.90;18.80;99460;;;;590937;239;23027;-79
2023/09/19 00:42:54;;;;;;;23.70;17.80;;;19.40;99.90;18.80;99458;;;;590942;238;23099;-79
2023/09/19 00:45:22;;;;;;;23.42;21.02;;;19.40;99.90;18.80;99449;;;;585571;239;35101;-79
2023/09/19 00:47:50;;;;;;;21.67;17.80;;;19.40;99.90;18.80;99450;;;;591009;239;24007;-78
2023/09/19 00:50:21;;;;;;;19.80;17.50;;;19.40;99.90;18.80;99450;;;;590797;239;24039;-78
2023/09/19 00:52:50;;;;;;;23.07;17.07;;;19.40;99.90;18.80;99451;;;;590681;239;24056;-80
2023/09/19 00:55:19;;;;;;;23.70;17.97;;;19.40;99.90;18.90;99456;;;;590361;239;23063;-78
2023/09/19 00:57:45;;;;;;;19.77;17.77;;;19.40;99.90;18.90;99454;;;;590649;239;24125;-79
2023/09/19 01:00:15;;;;;;;20.50;18.27;;;19.50;99.90;18.90;99452;;;;590723;239;24091;-79
2023/09/19 01:02:40;;;;;;;19.07;16.47;;;19.50;99.90;19.00;99451;;;;590612;239;24024;-80
2023/09/19 01:05:09;;;;;;;20.57;16.97;;;19.50;99.90;19.00;99439;;;;590300;239;24068;-79
2023/09/19 01:07:40;;;;;;;19.27;17.27;;;19.50;99.90;19.00;99434;;;;590619;239;24059;-79
2023/09/19 01:10:09;;;;;;;22.77;18.73;;;19.50;99.90;19.00;99432;;;;590465;239;24197;-79
2023/09/19 01:13:15;;;;;;;20.10;17.97;;;19.50;99.90;19.00;99436;;;;590631;239;24086;-79
2023/09/19 01:15:52;;;;;;;21.47;17.57;;;19.50;99.90;18.90;99423;;;;588472;239;24050;-80
2023/09/19 01:18:37;;;;;;;24.07;18.23;;;19.50;99.90;18.90;99428;;;;590189;239;24052;-79
2023/09/19 01:21:12;;;;;;;19.33;17.27;;;19.50;99.90;18.90;99427;;;;588190;239;25095;-78
2023/09/19 01:23:51;;;;;;;22.30;17.93;;;19.50;99.90;18.90;99432;;;;589754;239;24032;-79
2023/09/19 01:26:34;;;;;;;21.77;19.07;;;19.40;99.90;18.90;99425;;;;588486;239;24141;-78
2023/09/19 01:29:13;;;;;;;21.73;18.63;;;19.40;99.90;18.80;99434;;;;590953;239;23087;-78
2023/09/19 01:31:41;;;;;;;23.13;20.20;;;19.40;99.90;18.80;99429;;;;591372;239;24089;-78
2023/09/19 01:34:09;;;;;;;21.40;19.17;;;19.30;99.90;18.70;99433;;;;591387;239;24012;-78
2023/09/19 01:36:38;;;;;;;26.60;20.40;;;19.30;99.90;18.70;99431;;;;591245;239;23029;-79
2023/09/19 01:39:13;;;;;;;21.77;18.50;;;19.20;99.90;18.70;99436;;;;591105;239;23044;-78
2023/09/19 01:42:11;;;;;;;26.60;18.63;;;19.20;99.90;18.60;99428;;;;591260;239;23044;-78
2023/09/19 01:44:48;;;;;;;20.50;18.33;;;19.20;99.90;18.60;99425;;;;590551;239;23040;-79
2023/09/19 01:47:35;;;;;;;21.73;18.30;;;19.10;99.90;18.60;99429;;;;590781;239;24040;-78
2023/09/19 01:50:14;;;;;;;21.10;18.43;;;19.10;99.90;18.60;99438;;;;582090;243;24142;-78
2023/09/19 01:52:48;;;;;;;24.57;19.47;;;19.10;99.90;18.50;99433;;;;600515;239;24078;-78
2023/09/19 01:55:17;;;;;;;22.80;19.13;;;19.10;99.90;18.50;99422;;;;590458;239;23043;-77
2023/09/19 01:57:50;;;;;;;22.83;19.00;;;19.10;99.90;18.50;99426;;;;590849;239;24051;-79
2023/09/19 02:00:17;;;;;;;20.10;18.00;;;19.00;99.90;18.40;99422;;;;590282;239;23047;-79
2023/09/19 02:02:45;;;;;;;23.00;17.37;;;19.00;99.90;18.40;99421;;;;590637;239;24046;-78
2023/09/19 02:05:13;;;;;;;19.90;17.83;;;19.00;99.90;18.40;99420;;;;590282;239;24075;-79
2023/09/19 02:07:43;;;;;;;22.03;14.20;;;19.00;99.90;18.50;99413;;;;590969;239;24026;-79
2023/09/19 02:10:11;;;;;;;23.87;16.20;;;19.00;99.90;18.40;99407;;;;585071;239;24041;-79
2023/09/19 02:12:38;;;;;;;20.27;13.87;;;19.00;99.90;18.50;99410;;;;590052;239;23044;-78
2023/09/19 02:15:07;;;;;;;15.50;13.53;;;19.00;99.90;18.50;99406;;;;590362;239;24020;-78
2023/09/19 02:17:32;;;;;;;14.80;13.03;;;19.00;99.90;18.50;99405;;;;590115;239;24017;-78
2023/09/19 02:20:00;;;;;;;13.93;12.23;;;19.00;99.90;18.50;99408;;;;590509;239;23040;-77
2023/09/19 02:22:29;;;;;;;12.60;11.30;;;19.00;99.90;18.50;99400;;;;590276;239;24043;-77
2023/09/19 02:25:00;;;;;;;14.40;12.40;;;19.00;99.90;18.50;99396;;;;590192;239;24034;-78
2023/09/19 02:27:24;;;;;;;13.30;11.73;;;19.10;99.90;18.50;99404;;;;590673;239;24042;-78
2023/09/19 02:29:52;;;;;;;13.97;11.47;;;19.10;99.90;18.60;99396;;;;590746;239;24072;-78
2023/09/19 02:32:24;;;;;;;12.00;10.80;;;19.10;99.90;18.60;99400;;;;590667;239;24051;-78
2023/09/19 02:34:48;;;;;;;16.00;11.27;;;19.10;99.90;18.60;99399;;;;585366;239;23057;-78
2023/09/19 02:37:16;;;;;;;13.57;10.67;;;19.20;99.90;18.60;99401;;;;591774;238;24071;-78
2023/09/19 02:39:44;;;;;;;11.00;9.30;;;19.20;99.90;18.70;99393;;;;591945;238;24106;-78
2023/09/19 02:42:12;;;;;;;9.93;8.90;;;19.20;99.90;18.70;99401;;;;591565;239;24012;-79
2023/09/19 02:44:40;;;;;;;11.17;9.10;;;19.20;99.90;18.70;99400;;;;591591;239;23044;-78
2023/09/19 02:47:09;;;;;;;14.30;9.27;;;19.20;99.90;18.70;99385;;;;591271;239;24005;-78
2023/09/19 02:49:37;;;;;;;11.40;8.63;;;19.20;99.90;18.70;99382;;;;591269;239;24103;-78
2023/09/19 02:52:07;;;;;;;8.50;7.47;;;19.20;99.90;18.60;99380;;;;591281;239;23048;-78
2023/09/19 02:54:33;;;;;;;12.20;8.83;;;19.20;99.90;18.60;99380;;;;591129;239;23040;-78
2023/09/19 02:57:01;;;;;;;15.40;8.27;;;19.20;99.90;18.60;99373;;;;590662;239;24032;-79
2023/09/19 02:59:30;;;;;;;9.00;8.03;;;19.10;99.90;18.60;99374;;;;591017;239;23051;-77
2023/09/19 03:01:57;;;;;;;8.87;7.27;;;19.10;99.90;18.60;99368;;;;591005;239;24076;-78
2023/09/19 03:04:26;;;;;;;7.63;6.93;;;19.10;99.90;18.50;99362;;;;590761;239;24034;-78
2023/09/19 03:06:58;;;;;;;8.13;6.70;;;19.10;99.90;18.50;99365;;;;590765;239;24058;-79
2023/09/19 03:09:23;;;;;;;8.70;7.00;;;19.10;99.90;18.50;99367;;;;590529;239;23062;-79
2023/09/19 03:11:49;;;;;;;9.30;6.77;;;19.00;99.90;18.50;99351;;;;590435;239;24018;-79
2023/09/19 03:14:20;;;;;;;7.33;6.63;;;19.00;99.90;18.40;99354;;;;590410;239;24097;-79
2023/09/19 03:16:46;;;;;;;9.90;6.00;;;19.00;99.90;18.40;99347;;;;590270;239;24058;-78
2023/09/19 03:19:15;;;;;;;5.70;5.10;;;18.90;99.90;18.40;99348;;;;590466;239;23101;-77
2023/09/19 03:21:42;;;;;;;6.27;4.83;;;18.90;99.90;18.40;99348;;;;590266;239;24027;-79
2023/09/19 03:24:10;;;;;;;8.53;4.23;;;18.90;99.90;18.30;99344;;;;590218;239;24055;-79
2023/09/19 03:26:38;;;;;;;8.87;4.93;;;18.90;99.90;18.30;99341;;;;590712;239;23045;-79
2023/09/19 03:29:09;;;;;;;5.30;4.50;;;18.90;99.90;18.30;99336;;;;590289;239;24051;-79
2023/09/19 03:31:36;;;;;;;7.03;5.82;;;18.90;99.90;18.30;99334;;;;585287;239;34964;-78
2023/09/19 03:34:04;;;;;;;6.93;5.13;;;18.80;99.90;18.30;99338;;;;590258;239;24078;-79
2023/09/19 03:36:36;;;;;;;6.65;5.80;;;18.80;99.90;18.30;99336;;;;585616;239;34971;-78
2023/09/19 03:39:07;;;;;;;5.50;5.00;;;18.80;99.90;18.20;99342;;;;590355;239;24008;-79
2023/09/19 03:41:33;;;;;;;7.67;4.50;;;18.80;99.90;18.20;99331;;;;588311;239;23087;-79
2023/09/19 03:44:01;;;;;;;7.43;4.80;;;18.80;99.90;18.20;99342;;;;586763;239;23066;-79
2023/09/19 03:46:30;;;;;;;9.87;5.07;;;18.70;99.90;18.20;99332;;;;590194;239;23072;-79
2023/09/19 03:48:57;;;;;;;6.10;5.07;;;18.70;99.90;18.10;99339;;;;591473;238;23061;-79
2023/09/19 03:51:24;;;;;;;6.73;4.70;;;18.60;99.90;18.00;99342;;;;591518;239;23072;-80
2023/09/19 03:53:53;;;;;;;10.57;5.33;;;18.50;99.90;18.00;99335;;;;591610;239;24015;-79
2023/09/19 03:56:22;;;;;;;5.83;5.07;;;18.40;99.90;17.90;99328;;;;591173;238;24046;-79
2023/09/19 03:58:50;;;;;;;6.17;4.27;;;18.40;99.90;17.90;99330;;;;591217;239;24019;-78
2023/09/19 04:01:18;;;;;;;5.20;4.57;;;18.40;99.90;17.80;99331;;;;590946;239;24092;-80
2023/09/19 04:03:46;;;;;;;11.97;4.43;;;18.30;99.90;17.80;99328;;;;591205;239;23076;-79
2023/09/19 04:06:16;;;;;;;6.83;4.50;;;18.30;99.90;17.80;99315;;;;590851;239;24041;-80
2023/09/19 04:08:48;;;;;;;7.30;5.40;;;18.30;99.90;17.70;99314;;;;590492;239;24085;-79
2023/09/19 04:11:13;;;;;;;9.10;4.70;;;18.20;99.90;17.70;99317;;;;590284;239;23053;-79
2023/09/19 04:13:41;;;;;;;6.20;5.13;;;18.20;99.90;17.70;99324;;;;590633;239;24054;-80
2023/09/19 04:16:09;;;;;;;8.60;5.20;;;18.20;99.90;17.60;99322;;;;590622;239;24018;-79
2023/09/19 04:18:39;;;;;;;6.30;4.93;;;18.10;99.90;17.60;99336;;;;590721;239;24088;-79
2023/09/19 04:21:05;;;;;;;8.47;5.37;;;18.10;99.90;17.60;99327;;;;590662;239;25143;-79
2023/09/19 04:23:33;;;;;;;7.50;4.73;;;18.10;99.90;17.60;99333;;;;590846;239;24102;-79
2023/09/19 04:26:03;;;;;;;5.90;4.50;;;18.10;99.90;17.60;99334;;;;587011;239;24022;-79
2023/09/19 04:28:29;;;;;;;7.30;5.57;;;18.10;99.90;17.50;99338;;;;590726;239;24109;-80
2023/09/19 04:30:58;;;;;;;9.53;5.70;;;18.00;99.90;17.50;99341;;;;590414;239;24034;-79
2023/09/19 04:33:27;;;;;;;6.03;5.40;;;18.00;99.90;17.50;99339;;;;590274;239;24027;-79
2023/09/19 04:35:53;;;;;;;5.60;5.10;;;18.00;99.90;17.40;99331;;;;590104;239;24027;-79
2023/09/19 04:38:20;;;;;;;7.73;5.17;;;18.00;99.90;17.40;99333;;;;590314;239;24028;-78
2023/09/19 04:40:49;;;;;;;6.37;5.23;;;18.00;99.90;17.40;99334;;;;590203;239;24008;-78
2023/09/19 04:43:17;;;;;;;7.13;5.40;;;17.90;99.90;17.40;99337;;;;590392;239;24049;-78
2023/09/19 04:45:46;;;;;;;5.73;5.13;;;18.00;99.90;17.40;99344;;;;590291;239;24017;-77
2023/09/19 04:48:14;;;;;;;6.40;5.23;;;18.00;99.90;17.40;99342;;;;590436;239;24028;-79
2023/09/19 04:50:41;;;;;;;8.50;5.97;;;17.90;99.90;17.40;99344;;;;590303;239;24034;-78
2023/09/19 04:53:09;;;;;;;8.70;5.10;;;17.90;99.90;17.40;99351;;;;590489;239;24011;-77
2023/09/19 04:55:37;;;;;;;8.17;5.57;;;18.00;99.90;17.40;99356;;;;590408;239;24086;-79
2023/09/19 04:58:05;;;;;;;7.33;5.87;;;18.00;99.90;17.40;99362;;;;590209;239;24036;-80
2023/09/19 05:00:35;;;;;;;6.77;5.93;;;18.00;99.90;17.40;99371;;;;591844;238;24026;-79
2023/09/19 05:03:03;;;;;;;7.70;6.33;;;18.00;99.90;17.50;99358;;;;591839;239;24026;-79
2023/09/19 05:05:30;;;;;;;10.50;7.37;;;18.00;99.90;17.50;99362;;;;591195;239;24023;-78
2023/09/19 05:07:59;;;;;;;6.20;5.50;;;18.00;99.90;17.50;99366;;;;591215;239;24018;-78
2023/09/19 05:10:26;;;;;;;9.93;6.67;;;18.00;99.90;17.50;99355;;;;591032;239;23059;-80
2023/09/19 05:12:53;;;;;;;6.97;5.73;;;18.00;99.90;17.50;99354;;;;591003;239;24040;-79
2023/09/19 05:15:21;;;;;;;10.27;6.93;;;18.00;99.90;17.50;99362;;;;587367;239;23040;-78
2023/09/19 05:17:54;;;;;;;10.43;6.20;;;18.00;99.90;17.50;99358;;;;585797;239;24051;-77
2023/09/19 05:20:39;;;;;;;9.13;6.20;;;18.10;99.90;17.50;99352;;;;590223;239;24145;-79
2023/09/19 05:22:46;;;;;;;9.07;5.67;;;18.10;99.90;17.60;99364;;;;589158;239;24027;-79
2023/09/19 05:25:17;;;;;;;10.30;5.40;;;18.10;99.90;17.60;99355;;;;590564;239;24062;-78
2023/09/19 05:27:42;;;;;;;10.80;6.00;;;18.10;99.90;17.60;99347;;;;590048;239;24031;-78
2023/09/19 05:30:09;;;;;;;6.50;5.90;;;18.20;99.90;17.60;99342;;;;591066;239;24027;-79
2023/09/19 05:32:37;;;;;;;11.03;5.40;;;18.10;99.90;17.60;99338;;;;591033;238;24229;-78
2023/09/19 05:35:09;;;;;;;5.53;5.13;;;18.10;99.90;17.60;99341;;;;590958;239;24100;-78
2023/09/19 05:37:33;;;;;;;9.43;5.70;;;18.10;99.90;17.50;99345;;;;590040;239;24015;-79
2023/09/19 05:40:01;;;;;;;13.47;5.83;;;18.10;99.90;17.50;99352;;;;590621;239;25157;-79
2023/09/19 05:42:28;;;;;;;6.53;5.50;;;18.10;99.90;17.50;99354;;;;590634;234;23066;-79
2023/09/19 05:44:58;;;;;;;8.70;5.13;;;18.10;99.90;17.60;99359;;;;590657;239;24037;-79
2023/09/19 05:47:25;;;;;;;9.00;5.93;;;18.10;99.90;17.60;99361;;;;590598;239;24074;-80
2023/09/19 05:49:53;;;;;;;9.77;5.50;;;18.10;99.90;17.60;99364;;;;590677;239;24108;-78
2023/09/19 05:52:22;;;;;;;9.93;6.03;;;18.20;99.90;17.70;99360;;;;590656;239;24032;-79
2023/09/19 05:54:49;;;;;;;14.07;5.70;;;18.20;99.90;17.90;99363;;;;590607;239;24076;-79
2023/09/19 05:57:17;;;;;;;11.63;6.73;;;18.40;99.90;18.00;99364;;;;590639;239;24015;-78
2023/09/19 05:59:45;;;;;;;13.47;6.43;;;18.50;99.90;18.20;99368;;;;590689;239;24056;-80
2023/09/19 06:02:13;;;;;;;8.70;5.13;;;18.70;99.90;18.40;99367;;;;590290;239;24022;-79
2023/09/19 06:04:40;;;;;;;10.87;5.90;;;18.90;99.90;18.60;99370;;;;590330;239;24097;-79
2023/09/19 06:07:08;;;;;;;10.00;5.13;;;19.10;99.90;18.70;99382;;;;590347;239;24036;-79
2023/09/19 06:09:36;;;;;;;8.33;5.50;;;19.30;99.90;18.70;99380;;;;590212;239;24081;-78
2023/09/19 06:12:07;;;;;;;6.30;5.70;;;19.30;99.90;18.70;99374;;;;591345;238;24156;-79
2023/09/19 06:14:32;;;;;;;6.10;4.20;;;19.30;99.90;18.70;99369;;;;591011;239;24072;-78
2023/09/19 06:17:00;;;;;;;4.73;4.30;;;19.30;99.90;18.80;99374;;;;591282;239;24019;-78
2023/09/19 06:19:28;;;;;;;6.87;4.60;;;19.40;99.90;18.80;99375;;;;591120;239;23074;-79
2023/09/19 06:21:56;;;;;;;7.33;4.23;;;19.40;99.90;18.80;99374;;;;591011;239;23039;-79
2023/09/19 06:24:25;;;;;;;6.33;3.70;;;19.40;99.90;18.80;99372;;;;590884;239;23040;-77
2023/09/19 06:26:52;;;;;;;4.60;3.43;;;19.40;99.90;18.90;99375;;;;590778;239;24098;-78
2023/09/19 06:29:20;;;;;;;4.60;3.93;;;19.40;99.90;18.90;99385;;;;590769;239;24106;-77
2023/09/19 06:31:47;;;;;;;6.30;4.40;;;19.50;99.90;19.00;99383;;;;590938;239;23058;-79
2023/09/19 06:34:15;;;;;;;5.17;3.87;;;19.60;99.90;19.10;99384;;;;590971;239;24010;-78
2023/09/19 06:36:45;;;;;;;7.07;4.37;;;19.70;99.90;19.10;99391;;;;590689;239;24045;-78
2023/09/19 06:39:12;;;;;;;5.83;3.93;;;19.70;99.90;19.20;99396;;;;590526;239;25142;-77
2023/09/19 06:41:41;;;;;;;4.37;3.97;;;19.80;99.90;19.40;99396;;;;590664;239;24133;-77
2023/09/19 06:44:09;;;;;;;8.73;4.80;;;19.90;99.90;19.60;99386;;;;590523;239;23055;-77
2023/09/19 06:46:39;;;;;;;6.77;4.23;;;20.30;99.90;19.80;99393;;;;590656;239;24042;-78
2023/09/19 06:49:06;;;;;;;5.77;4.53;;;20.30;99.90;20.00;99385;;;;590210;239;23062;-79
2023/09/19 06:51:34;;;;;;;4.67;4.27;;;20.60;99.90;20.20;99387;;;;590455;239;24029;-79
2023/09/19 06:54:01;;;;;;;5.27;4.03;;;20.70;99.90;20.30;99392;;;;589816;239;24020;-79
2023/09/19 06:56:29;;;;;;;4.40;3.93;;;20.90;99.90;20.40;99390;;;;586590;239;24019;-78
2023/09/19 06:58:57;;;;;;;6.03;4.17;;;20.90;99.90;20.30;99396;;;;590386;239;24012;-79
2023/09/19 07:01:26;;;;;;;4.67;4.17;;;20.90;99.90;20.30;99397;;;;590660;239;24023;-79
2023/09/19 07:03:54;;;;;;;5.77;3.90;;;20.80;99.90;20.20;99398;;;;590362;239;24060;-78
2023/09/19 07:06:22;;;;;;;7.23;4.37;;;20.80;99.90;20.20;99391;;;;590227;239;24021;-78
2023/09/19 07:08:50;;;;;;;5.67;4.43;;;20.80;99.90;20.20;99398;;;;590200;239;24070;-78
2023/09/19 07:11:18;;;;;;;13.30;4.87;;;20.80;99.90;20.20;99398;;;;590343;239;24048;-79
2023/09/19 07:13:47;;;;;;;8.80;5.20;;;20.70;99.90;20.30;99390;;;;590186;239;23042;-79
2023/09/19 07:16:27;;;;;;;8.30;5.13;;;20.80;99.90;20.40;99391;;;;590390;239;23031;-79
2023/09/19 07:18:44;;;;;;;8.67;4.60;;;20.90;99.90;20.50;99392;;;;590248;239;24020;-78
2023/09/19 07:21:15;;;;;;;5.73;4.27;;;21.00;99.90;20.80;99393;;;;590409;239;24073;-79
2023/09/19 07:23:39;;;;;;;5.17;3.97;;;21.20;99.90;21.10;99400;;;;591348;238;24022;-78
2023/09/19 07:26:07;;;;;;;6.50;4.40;;;21.50;99.90;21.40;99398;;;;591359;239;24007;-76
2023/09/19 07:28:36;;;;;;;14.37;4.50;;;21.90;99.90;21.80;99399;;;;591281;239;24041;-79
2023/09/19 07:31:09;;;;;;;7.30;3.80;;;22.20;99.90;22.10;99399;;;;591498;239;24016;-79
2023/09/19 07:33:31;;;;;;;4.57;3.93;;;22.50;99.90;22.30;99403;;;;590675;239;24120;-80
2023/09/19 07:35:59;;;;;;;8.23;3.90;;;22.80;99.90;22.40;99388;;;;590781;239;24019;-80
2023/09/19 07:38:26;;;;;;;8.33;3.70;;;23.00;99.90;22.50;99397;;;;590674;239;24079;-79
2023/09/19 07:40:55;;;;;;;5.33;3.80;;;23.00;99.90;22.50;99405;;;;590861;239;23063;-78
2023/09/19 07:43:22;;;;;;;5.17;3.80;;;23.00;99.90;22.40;99401;;;;586447;239;24064;-77
2023/09/19 07:45:50;;;;;;;8.03;3.57;;;23.00;99.90;22.20;99403;;;;590700;239;24065;-78
2023/09/19 07:48:18;;;;;;;3.57;3.27;;;22.80;99.90;22.00;99410;;;;590580;239;24010;-78
2023/09/19 07:50:46;;;;;;;8.67;3.60;;;22.60;99.90;21.80;99409;;;;590780;238;23137;-78
2023/09/19 07:53:15;;;;;;;5.87;3.47;;;22.40;99.90;21.70;99408;;;;590603;239;24012;-78
2023/09/19 07:55:42;;;;;;;7.27;3.90;;;22.20;99.90;21.50;99400;;;;590457;239;24015;-78
2023/09/19 07:58:10;;;;;;;3.63;3.27;;;21.90;99.90;21.40;99400;;;;590625;239;24098;-78
2023/09/19 08:00:38;;;;;;;4.20;3.80;;;21.90;99.90;21.30;99409;;;;590235;239;24027;-80
2023/09/19 08:03:08;;;;;;;4.83;3.73;;;21.80;99.90;21.20;99411;;;;590731;239;24072;-78
2023/09/19 08:05:34;;;;;;;8.50;4.00;;;21.70;99.90;21.10;99416;;;;590106;239;24041;-79
2023/09/19 08:08:02;;;;;;;4.13;3.73;;;21.60;99.90;21.10;99413;;;;590241;239;24025;-77
2023/09/19 08:10:35;;;;;;;8.33;4.27;;;21.50;99.90;21.00;99420;;;;590331;239;24070;-78
2023/09/19 08:12:59;;;;;;;7.47;3.73;;;21.50;99.90;21.00;99414;;;;590202;239;23074;-78
2023/09/19 08:15:27;;;;;;;4.33;3.80;;;21.50;99.90;21.00;99414;;;;590372;239;24028;-78
2023/09/19 08:17:54;;;;;;;4.70;4.27;;;21.40;99.90;21.10;99416;;;;590272;239;24042;-78
2023/09/19 08:20:23;;;;;;;6.63;3.83;;;21.50;99.90;22.20;99425;;;;590401;239;24011;-77
2023/09/19 08:22:52;;;;;;;3.73;3.23;;;22.30;99.90;24.30;99428;;;;590210;239;24080;-79
2023/09/19 08:25:18;;;;;;;3.73;2.90;;;24.30;99.90;26.70;99435;;;;588580;239;23049;-79
2023/09/19 08:27:48;;;;;;;4.37;3.00;;;26.80;99.90;28.80;99434;;;;586902;239;24080;-79
2023/09/19 08:30:14;;;;;;;3.83;2.80;;;28.90;99.90;31.00;99439;;;;590243;239;23037;-79
2023/09/19 08:32:45;;;;;;;3.22;2.80;;;31.20;99.90;32.20;99432;;;;590249;239;24099;-78
2023/09/19 08:35:10;;;;;;;2.60;2.30;;;32.70;99.90;32.30;99442;;;;591085;238;23053;-79
2023/09/19 08:37:38;;;;;;;3.72;2.50;;;33.10;96.90;31.60;99443;;;;587376;239;23037;-79
2023/09/19 08:40:09;;;;;;;4.10;2.28;;;32.70;95.00;30.80;99439;;;;591237;239;23021;-79
2023/09/19 08:42:34;;;;;;;6.80;2.95;;;31.30;94.70;30.20;99460;;;;590954;238;23032;-79
2023/09/19 08:45:02;;;;;;;5.95;2.75;;;31.30;94.60;29.20;99457;;;;584985;239;24035;-79
2023/09/19 08:47:36;;;;;;;6.22;2.33;;;30.50;95.40;28.30;99453;;;;590888;239;24059;-78
2023/09/19 08:50:15;;;;;;;2.65;2.47;;;29.50;96.90;28.30;99453;;;;586788;239;23211;-79
2023/09/19 08:52:43;;;;;;;2.67;2.30;;;29.00;98.40;28.90;99454;;;;586830;239;23059;-78
2023/09/19 08:55:11;;;;;;;4.28;2.25;;;29.40;98.50;29.90;99459;;;;589199;239;25204;-80
2023/09/19 08:57:43;;;;;;;3.17;2.25;;;30.20;97.90;31.20;99464;;;;586961;234;23060;-78
2023/09/19 09:00:11;;;;;;;3.80;2.30;;;31.50;95.20;31.90;99467;;;;587546;239;24082;-78
2023/09/19 09:02:41;;;;;;;3.00;1.92;;;32.40;93.60;32.70;99481;;;;586985;239;23053;-79
2023/09/19 09:05:09;;;;;;;4.43;2.15;;;33.20;91.20;33.30;99475;;;;587018;239;23071;-77
2023/09/19 09:07:40;;;;;;;3.40;1.87;;;33.80;88.20;33.60;99482;;;;590444;239;23048;-78
2023/09/19 09:10:11;;;;;;;2.80;1.70;;;34.30;83.80;33.60;99479;;;;586705;239;23087;-78
2023/09/19 09:12:40;;;;;;;4.65;2.40;;;34.30;81.50;34.60;99480;;;;590304;239;23040;-78
2023/09/19 09:15:11;;;;;;;2.20;1.77;;;35.00;79.50;35.60;99479;;;;586592;239;23068;-78
2023/09/19 09:17:35;;;;;;;10.77;2.10;;;36.10;75.40;36.40;99476;;;;589701;239;23037;-78
2023/09/19 09:20:09;;;;;;;2.03;1.85;;;37.90;68.80;37.30;99478;;;;590248;239;23090;-78
2023/09/19 09:22:32;;;;;;;3.70;1.98;;;38.40;66.50;37.50;99482;;;;590228;239;23093;-78
2023/09/19 09:25:04;;;;;;;2.05;1.70;;;38.30;66.40;36.60;99484;;;;590301;239;23045;-78
2023/09/19 09:27:34;;;;;;;4.85;2.40;;;38.00;63.90;36.10;99487;;;;586694;239;23080;-77
2023/09/19 09:30:02;;;;;;;7.15;2.37;;;37.50;63.90;36.20;99497;;;;590345;239;23044;-78
2023/09/19 09:32:28;;;;;;;3.22;1.58;;;37.50;63.40;36.00;99501;;;;590156;239;23045;-77
2023/09/19 09:34:55;;;;;;;2.67;2.10;;;37.60;62.30;36.20;99507;;;;586898;239;23041;-79
2023/09/19 09:37:24;;;;;;;8.35;2.00;;;37.60;61.80;35.80;99505;;;;586769;239;23048;-77
2023/09/19 09:39:56;;;;;;;2.00;1.45;;;37.40;62.10;35.00;99510;;;;590182;237;23041;-78
2023/09/19 09:42:35;;;;;;;1.98;1.77;;;36.70;63.20;34.00;99512;;;;590433;239;23063;-78
2023/09/19 09:45:48;;;;;;;3.00;1.70;;;35.70;64.50;32.70;99503;;;;587316;239;23028;-77
2023/09/19 09:48:14;;;;;;;3.92;1.83;;;34.40;66.20;32.10;99517;;;;584602;239;23035;-78
2023/09/19 09:50:39;;;;;;;4.03;1.87;;;33.50;68.50;31.20;99521;;;;585453;239;23052;-78
2023/09/19 09:53:06;;;;;;;4.95;1.80;;;32.60;70.80;30.60;99518;;;;590828;239;23091;-79
2023/09/19 09:55:29;;;;;;;1.77;1.65;;;31.70;73.30;30.90;99518;;;;590845;238;23050;-77
2023/09/19 09:58:25;;;;;;;4.55;1.92;;;31.70;73.80;31.40;99524;;;;590231;239;23091;-79
2023/09/19 10:03:47;;;;;;;9.98;3.25;;;32.80;71.20;31.10;99513;;;;571739;251;24078;-79
2023/09/19 10:06:25;;;;;;;2.30;1.45;;;32.50;70.40;30.40;99522;;;;573567;242;24100;-78
2023/09/19 10:08:37;;;;;;;3.40;1.60;;;31.70;71.40;29.60;99530;;;;572779;245;24226;-78
2023/09/19 10:11:11;;;;;;;1.73;1.62;;;30.90;73.10;28.70;99522;;;;577649;245;23057;-78
2023/09/19 10:13:33;;;;;;;2.28;1.48;;;29.90;76.20;28.10;99536;;;;576423;245;23108;-77
2023/09/19 10:16:03;;;;;;;9.73;1.92;;;29.10;78.30;27.50;99538;;;;577322;243;23053;-78
2023/09/19 10:18:30;;;;;;;2.97;1.45;;;27.90;82.80;27.20;99537;;;;577101;245;24126;-77
2023/09/19 10:20:58;;;;;;;2.15;1.60;;;27.40;85.00;26.90;99550;;;;577468;243;23072;-79
2023/09/19 10:23:29;;;;;;;1.60;1.50;;;27.40;84.90;26.70;99552;;;;577404;245;23068;-78
2023/09/19 10:25:57;;;;;;;5.27;1.73;;;27.20;86.60;26.50;99562;;;;576898;245;23068;-79
2023/09/19 10:28:24;;;;;;;4.43;2.70;;;27.00;88.00;26.30;99552;;;;585851;245;23101;-77
2023/09/19 10:30:52;;;;;;;3.95;1.73;;;26.70;89.60;26.40;99557;;;;577345;245;24113;-76
2023/09/19 10:33:25;;;;;;;2.03;1.60;;;26.80;90.00;26.60;99561;;;;585877;243;23068;-78
2023/09/19 10:35:51;;;;;;;4.43;2.20;;;27.00;89.80;26.50;99547;;;;576843;245;24103;-78
2023/09/19 10:38:23;;;;;;;2.75;1.40;;;27.00;89.80;26.30;99546;;;;577133;244;24097;-78
2023/09/19 10:40:50;;;;;;;3.47;1.63;;;26.80;88.60;26.10;99542;;;;576677;245;23185;-78
2023/09/19 10:43:24;;;;;;;2.03;1.30;;;26.60;88.30;26.00;99544;;;;576020;245;23088;-78
2023/09/19 10:45:54;;;;;;;4.73;1.60;;;26.50;89.20;25.90;99538;;;;577072;245;24060;-77
2023/09/19 10:48:25;;;;;;;2.07;1.37;;;26.30;89.90;25.70;99536;;;;585829;243;23175;-78
2023/09/19 10:50:54;;;;;;;2.87;2.10;;;26.10;90.30;25.50;99542;;;;585858;245;23067;-77
2023/09/19 10:53:24;;;;;;;3.23;1.47;;;25.70;91.40;25.20;99540;;;;573870;245;23095;-78
2023/09/19 10:55:59;;;;;;;2.77;1.60;;;25.70;91.40;24.90;99546;;;;585697;245;24074;-78
2023/09/19 10:58:34;;;;;;;1.63;1.53;;;25.40;91.10;24.70;99537;;;;577963;245;23157;-77
2023/09/19 11:01:06;;;;;;;4.30;1.70;;;25.10;91.10;24.40;99538;;;;587087;244;23090;-77
2023/09/19 11:03:31;;;;;;;2.47;1.57;;;24.80;91.30;24.20;99530;;;;586720;244;23095;-78
2023/09/19 11:06:04;;;;;;;3.33;1.60;;;24.70;91.80;24.00;99526;;;;586675;239;23121;-79
2023/09/19 11:08:30;;;;;;;3.03;1.63;;;24.40;92.10;23.90;99542;;;;576741;245;23137;-77
2023/09/19 11:10:59;;;;;;;2.00;1.80;;;24.30;92.50;23.90;99550;;;;586814;243;27301;-78
2023/09/19 11:13:30;;;;;;;1.77;1.40;;;24.30;92.80;23.90;99562;;;;586843;243;23080;-78
2023/09/19 11:15:59;;;;;;;4.13;1.60;;;24.30;92.90;24.10;99564;;;;577645;243;24079;-78
2023/09/19 11:18:42;;;;;;;5.00;1.67;;;24.40;92.80;24.20;99556;;;;577649;245;23137;-77
2023/09/19 11:21:33;;;;;;;6.07;1.40;;;24.50;92.40;24.30;99556;;;;573463;245;24073;-78
2023/09/19 11:24:18;;;;;;;7.17;1.80;;;24.70;92.40;24.50;99554;;;;577086;245;23140;-78